Pagrindinis puslapis
METAR-TAF:

METAR-TAF

Oro uostai :

Aniak, Aliaska, Jungtinės Amerikos Valstijos

platuma: 61-34-53N, ilguma: 159-32-34W, Aukštis: 27 m

Dabartinis oras

Ataskaita buvo paskelbta 22 minutes, ne 21:56 UTC
Vėjas 12 kt iš Rytų/Pietryčių
Temperatūra 7°C
Drėgmė 57%
Slėgis 1003 hPa
Matomumas: 16.1 km
Giedras dangus

METAR: PANI 212156Z AUTO 11012KT 10SM CLR 07/M01 A2961 RMK AO2 SLP028 T00721006

Laikas: 14:18 (22:18 UTC)


TAF: trūkstamas

Orai ataskaitas ir orų prognozės (METAR, TAF).

turimą stotys yra geltonos ir raudonos taškus žemėlapyje.

Perkelti pele per norėdami pamatyti stoties vardą.

Tada spustelėkite, norėdami matyti oro stebėjimo ir prognozės.

Norėdami pakeisti žemėlapį: spustelėkite ant žalios mygtukų su juodo kryžiaus žemyn,; žalią mygtuką su brūkšneliu, jei norite nutolinti; arba žalių rodyklių gretimoms žemėlapius.


METAR-TAF: